createdAt,value
2022-12-23T00:02:23.469Z,99994.63
2022-12-23T00:05:25.761Z,99998.16
2022-12-23T00:08:28.128Z,99993.03
2022-12-23T00:11:30.385Z,100003.31
2022-12-23T00:14:51.091Z,99997.63
2022-12-23T00:17:53.319Z,100001.94
2022-12-23T00:21:08.815Z,99999.25
2022-12-23T00:24:12.078Z,100006.53
2022-12-23T00:27:14.250Z,100001.94
2022-12-23T00:30:16.564Z,100002.75
2022-12-23T00:33:21.206Z,99993.03
2022-12-23T00:36:28.127Z,99998.44
2022-12-23T00:39:54.661Z,99991.41
2022-12-23T00:42:57.448Z,99996.53
2022-12-23T00:45:59.777Z,99989.50
2022-12-23T00:49:20.665Z,99973.31
2022-12-23T00:52:22.791Z,99971.44
2022-12-23T00:55:25.147Z,99984.13
2022-12-23T00:58:27.491Z,99986.00
2022-12-23T01:01:48.168Z,99991.41
2022-12-23T01:05:08.960Z,99988.69
2022-12-23T01:08:12.215Z,99987.09
2022-12-23T01:11:14.370Z,99975.47
2022-12-23T01:14:17.616Z,99967.38
2022-12-23T01:17:19.876Z,99985.22
2022-12-23T01:20:22.309Z,99975.47
2022-12-23T01:23:24.415Z,99970.06
2022-12-23T01:26:26.683Z,99964.69
2022-12-23T01:29:29.835Z,99960.09
2022-12-23T01:32:32.086Z,99957.66
2022-12-23T01:35:34.277Z,99950.34
2022-12-23T01:38:36.413Z,99954.69
2022-12-23T01:41:57.287Z,99958.19
2022-12-23T01:45:09.530Z,99946.59
2022-12-23T01:48:31.248Z,99950.88
2022-12-23T01:51:33.446Z,99943.88
2022-12-23T01:54:36.154Z,99945.47
2022-12-23T01:57:42.121Z,99942.78
2022-12-23T02:01:05.287Z,99945.78
2022-12-23T02:04:10.609Z,99941.19
2022-12-23T02:07:31.944Z,99934.97
2022-12-23T02:10:53.206Z,99932.25
2022-12-23T02:14:52.772Z,99935.78
2022-12-23T02:18:22.212Z,99934.69
2022-12-23T02:21:32.803Z,99917.69
2022-12-23T02:25:25.622Z,99926.03
2022-12-23T02:28:39.627Z,99914.19
2022-12-23T02:32:00.594Z,99922.28
2022-12-23T02:35:29.375Z,99915.25
2022-12-23T02:38:58.852Z,99924.97
2022-12-23T02:42:13.603Z,99911.47
2022-12-23T02:45:26.518Z,99914.19
2022-12-23T02:48:37.408Z,99917.69
2022-12-23T02:51:42.850Z,99909.59
2022-12-23T02:54:57.587Z,99902.56
2022-12-23T02:58:04.383Z,99911.47
2022-12-23T03:01:07.229Z,99908.78
2022-12-23T03:04:09.522Z,99910.66
2022-12-23T03:07:18.878Z,99922.28
2022-12-23T03:10:52.122Z,99920.66
2022-12-23T03:14:09.476Z,99927.69
2022-12-23T03:17:14.406Z,99923.34
2022-12-23T03:20:36.639Z,99915.00
2022-12-23T03:23:55.535Z,99914.19
2022-12-23T03:27:03.283Z,99916.88
2022-12-23T03:30:12.260Z,99911.47
2022-12-23T03:33:26.776Z,99908.78
2022-12-23T03:36:32.879Z,99916.88
2022-12-23T03:39:41.192Z,99914.19
2022-12-23T03:42:45.378Z,99902.03
2022-12-23T03:45:56.149Z,99913.38
2022-12-23T03:49:01.471Z,99908.25
2022-12-23T03:52:08.065Z,99905.53
2022-12-23T03:55:14.972Z,99895.56
2022-12-23T03:58:40.178Z,99902.56
2022-12-23T04:02:11.383Z,99899.03
2022-12-23T04:05:22.647Z,99895.56
2022-12-23T04:08:28.599Z,99904.44
2022-12-23T04:11:30.743Z,99897.44
2022-12-23T04:14:34.164Z,99897.44
2022-12-23T04:17:36.348Z,99890.16
2022-12-23T04:20:38.498Z,99882.06
2022-12-23T04:23:40.649Z,99882.84
2022-12-23T04:26:42.870Z,99887.44
2022-12-23T04:29:45.170Z,99879.34
2022-12-23T04:32:47.421Z,99882.06
2022-12-23T04:35:49.572Z,99881.25
2022-12-23T04:38:51.733Z,99886.63
2022-12-23T04:41:53.836Z,99884.75
2022-12-23T04:44:55.967Z,99897.44
2022-12-23T04:47:58.519Z,99890.94
2022-12-23T04:51:04.708Z,99895.56
2022-12-23T04:54:06.859Z,99902.84
2022-12-23T04:57:08.993Z,99891.22
2022-12-23T05:00:11.552Z,99890.16
2022-12-23T05:03:13.831Z,99896.34
2022-12-23T05:06:16.164Z,99895.56
2022-12-23T05:09:18.410Z,99896.63
2022-12-23T05:12:20.560Z,99892.03
2022-12-23T05:15:22.709Z,99894.22
2022-12-23T05:18:24.897Z,99905.53
2022-12-23T05:21:27.033Z,99904.72
2022-12-23T05:24:29.196Z,99914.47
2022-12-23T05:27:31.296Z,99905.53
2022-12-23T05:30:33.784Z,99910.13
2022-12-23T05:33:36.043Z,99902.84
2022-12-23T05:36:38.264Z,99902.03
2022-12-23T05:39:40.498Z,99891.22
2022-12-23T05:42:42.637Z,99885.81
2022-12-23T05:45:47.035Z,99892.03
2022-12-23T05:48:49.261Z,99889.34
2022-12-23T05:51:51.416Z,99889.34
2022-12-23T05:54:53.665Z,99891.22
2022-12-23T05:57:55.777Z,99908.25
2022-12-23T06:00:57.938Z,99915.25
2022-12-23T06:04:00.165Z,99925.25
2022-12-23T06:07:02.435Z,99937.94
2022-12-23T06:10:06.242Z,99930.94
2022-12-23T06:13:08.475Z,99918.22
2022-12-23T06:16:10.673Z,99916.34
2022-12-23T06:19:12.921Z,99912.03
2022-12-23T06:22:15.830Z,99912.81
2022-12-23T06:25:18.027Z,99919.03
2022-12-23T06:28:20.280Z,99914.75
2022-12-23T06:31:22.440Z,99918.22
2022-12-23T06:34:24.613Z,99913.66
2022-12-23T06:37:26.706Z,99906.66
2022-12-23T06:40:29.673Z,99910.94
2022-12-23T06:43:31.844Z,99908.25
2022-12-23T06:46:34.147Z,99898.53
2022-12-23T06:49:36.279Z,99905.53
2022-12-23T06:52:38.396Z,99909.34
2022-12-23T06:55:40.478Z,99924.44
2022-12-23T06:58:42.576Z,99923.63
2022-12-23T07:01:44.788Z,99918.22
2022-12-23T07:04:47.028Z,99929.03
2022-12-23T07:07:49.183Z,99930.94
2022-12-23T07:10:57.566Z,99934.44
2022-12-23T07:14:00.397Z,99946.06
2022-12-23T07:17:02.613Z,99957.66
2022-12-23T07:20:05.848Z,99957.44
2022-12-23T07:23:07.995Z,99960.66
2022-12-23T07:26:10.113Z,99971.47
2022-12-23T07:29:12.186Z,99972.25
2022-12-23T07:32:14.361Z,99963.06
2022-12-23T07:35:16.819Z,99962.25
2022-12-23T07:38:18.915Z,99956.84
2022-12-23T07:41:21.122Z,99939.56
2022-12-23T07:44:23.270Z,99932.56
2022-12-23T07:47:25.420Z,99938.78
2022-12-23T07:50:28.175Z,99941.47
2022-12-23T07:53:30.565Z,99940.38
2022-12-23T07:56:32.732Z,99941.47
2022-12-23T07:59:34.838Z,99937.94
2022-12-23T08:02:37.242Z,99930.66
2022-12-23T08:05:39.412Z,99930.66
2022-12-23T08:08:43.628Z,99934.16
2022-12-23T08:11:45.935Z,99932.25
2022-12-23T08:14:48.519Z,99930.66
2022-12-23T08:17:50.706Z,99927.69
2022-12-23T08:21:00.680Z,99919.56
2022-12-23T08:24:02.810Z,99908.78
2022-12-23T08:27:04.925Z,99906.88
2022-12-23T08:30:07.597Z,99925.50
2022-12-23T08:33:09.766Z,99926.31
2022-12-23T08:36:22.478Z,99929.03
2022-12-23T08:39:25.472Z,99930.38
2022-12-23T08:42:27.576Z,99913.88
2022-12-23T08:45:29.734Z,99907.66
2022-12-23T08:48:33.197Z,99922.81
2022-12-23T08:51:36.335Z,99917.41
2022-12-23T08:54:38.474Z,99911.19
2022-12-23T08:57:40.682Z,99904.72
2022-12-23T09:00:42.916Z,99884.19
2022-12-23T09:03:45.339Z,99858.81
2022-12-23T09:06:47.550Z,99863.38
2022-12-23T09:09:49.684Z,99864.19
2022-12-23T09:12:51.838Z,99875.78
2022-12-23T09:15:53.983Z,99890.13
2022-12-23T09:18:56.581Z,99889.28
2022-12-23T09:21:58.724Z,99908.19
2022-12-23T09:25:05.064Z,99895.50
2022-12-23T09:28:07.509Z,99907.13
2022-12-23T09:31:10.972Z,99899.03
2022-12-23T09:34:13.195Z,99903.63
2022-12-23T09:37:16.793Z,99903.63
2022-12-23T09:40:21.427Z,99895.50
2022-12-23T09:43:39.941Z,99885.53
2022-12-23T09:47:07.475Z,99883.91
2022-12-23T09:50:26.923Z,99865.00
2022-12-23T09:54:17.082Z,99865.81
2022-12-23T09:57:36.507Z,99873.91
2022-12-23T10:00:42.887Z,99882.81
2022-12-23T10:03:59.772Z,99886.59
2022-12-23T10:07:04.966Z,99873.09
2022-12-23T10:10:43.247Z,99849.59
2022-12-23T10:13:47.699Z,99843.38
2022-12-23T10:16:52.997Z,99827.19
2022-12-23T10:19:58.417Z,99831.50
2022-12-23T10:23:00.752Z,99834.50
2022-12-23T10:26:08.646Z,99829.88
2022-12-23T10:29:19.228Z,99819.06
2022-12-23T10:32:55.500Z,99824.47
2022-12-23T10:36:16.412Z,99819.06
2022-12-23T10:39:47.047Z,99804.50
2022-12-23T10:43:10.922Z,99805.56
2022-12-23T10:46:30.073Z,99801.78
2022-12-23T10:49:32.176Z,99801.78
2022-12-23T10:52:36.343Z,99801.78
2022-12-23T10:55:39.050Z,99792.88
2022-12-23T10:58:42.574Z,99792.88
2022-12-23T11:01:47.719Z,99796.41
2022-12-23T11:04:50.399Z,99790.19
2022-12-23T11:07:52.607Z,99800.16
2022-12-23T11:10:55.220Z,99812.59
2022-12-23T11:13:57.321Z,99802.88
2022-12-23T11:16:59.416Z,99803.97
2022-12-23T11:20:10.454Z,99787.75
2022-12-23T11:23:27.551Z,99796.94
2022-12-23T11:26:29.749Z,99804.25
2022-12-23T11:29:37.628Z,99807.22
2022-12-23T11:32:42.524Z,99793.22
2022-12-23T11:35:45.396Z,99786.19
2022-12-23T11:38:54.055Z,99787.28
2022-12-23T11:42:06.195Z,99797.56
2022-12-23T11:45:08.975Z,99806.44
2022-12-23T11:48:28.196Z,99795.94
2022-12-23T11:51:30.322Z,99805.09
2022-12-23T11:54:33.687Z,99819.97
2022-12-23T11:57:42.364Z,99807.81
2022-12-23T12:00:55.482Z,99817.03
2022-12-23T12:04:01.581Z,99816.50
2022-12-23T12:07:05.023Z,99814.88
2022-12-23T12:10:13.737Z,99820.56
2022-12-23T12:13:25.329Z,99827.84
2022-12-23T12:16:30.536Z,99816.50
2022-12-23T12:19:40.871Z,99814.09
2022-12-23T12:22:51.861Z,99803.31
2022-12-23T12:26:06.668Z,99805.47
2022-12-23T12:29:27.108Z,99810.09
2022-12-23T12:32:47.992Z,99816.56
2022-12-23T12:36:24.896Z,99820.38
2022-12-23T12:39:34.251Z,99812.53
2022-12-23T12:42:40.719Z,99813.63
2022-12-23T12:45:50.812Z,99807.41
2022-12-23T12:48:57.749Z,99811.22
2022-12-23T12:52:10.239Z,99798.78
2022-12-23T12:55:28.990Z,99809.56
2022-12-23T12:58:31.179Z,99811.75
2022-12-23T13:01:46.177Z,99802.84
2022-12-23T13:05:23.005Z,99803.94
2022-12-23T13:08:51.130Z,99815.84
2022-12-23T13:12:04.516Z,99823.13
2022-12-23T13:15:20.581Z,99830.41
2022-12-23T13:18:41.497Z,99820.69
2022-12-23T13:21:48.545Z,99812.59
2022-12-23T13:25:03.093Z,99822.59
2022-12-23T13:28:15.575Z,99817.47
2022-12-23T13:32:18.359Z,99818.53
2022-12-23T13:35:35.574Z,99820.44
2022-12-23T13:38:59.661Z,99813.44
2022-12-23T13:42:05.978Z,99818.81
2022-12-23T13:45:16.836Z,99811.78
2022-12-23T13:48:43.420Z,99819.13
2022-12-23T13:51:53.441Z,99820.19
2022-12-23T13:55:11.585Z,99815.88
2022-12-23T13:58:16.738Z,99817.78
2022-12-23T14:01:22.068Z,99819.66
2022-12-23T14:04:33.944Z,99817.78
2022-12-23T14:07:36.219Z,99821.56
2022-12-23T14:10:39.008Z,99819.94
2022-12-23T14:14:46.596Z,99825.34
2022-12-23T14:18:04.449Z,99812.94
2022-12-23T14:21:45.520Z,99814.81
2022-12-23T14:25:18.772Z,99828.59
2022-12-23T14:28:39.638Z,99827.78
2022-12-23T14:31:44.282Z,99834.00
2022-12-23T14:35:18.438Z,99837.75
2022-12-23T14:38:28.838Z,99829.66
2022-12-23T14:41:50.437Z,99838.88
2022-12-23T14:44:52.780Z,99838.34
2022-12-23T14:47:54.965Z,99837.22
2022-12-23T14:51:24.183Z,99838.34
2022-12-23T14:55:06.031Z,99830.22
2022-12-23T14:58:27.000Z,99834.81
2022-12-23T15:01:40.929Z,99834.00
2022-12-23T15:04:48.047Z,99842.09
2022-12-23T15:07:50.469Z,99842.09
2022-12-23T15:10:53.531Z,99838.88
2022-12-23T15:13:58.798Z,99838.88
2022-12-23T15:17:15.609Z,99845.06
2022-12-23T15:20:23.342Z,99851.56
2022-12-23T15:23:25.498Z,99856.16
2022-12-23T15:26:30.928Z,99871.25
2022-12-23T15:29:33.150Z,99866.13
2022-12-23T15:32:35.330Z,99866.13
2022-12-23T15:35:39.708Z,99851.03
2022-12-23T15:38:42.024Z,99852.94
2022-12-23T15:41:45.666Z,99852.94
2022-12-23T15:44:47.818Z,99860.19
2022-12-23T15:47:50.682Z,99851.28
2022-12-23T15:50:56.090Z,99845.91
2022-12-23T15:54:02.034Z,99845.91
2022-12-23T15:57:05.015Z,99850.50
2022-12-23T16:00:18.747Z,99860.50
2022-12-23T16:03:28.085Z,99849.69
2022-12-23T16:06:33.129Z,99849.97
2022-12-23T16:09:36.654Z,99844.59
2022-12-23T16:12:40.458Z,99843.75
2022-12-23T16:15:44.315Z,99849.16
2022-12-23T16:18:47.784Z,99844.84
2022-12-23T16:21:50.466Z,99857.25
2022-12-23T16:25:09.791Z,99856.44
2022-12-23T16:28:15.115Z,99843.22
2022-12-23T16:31:19.045Z,99853.22
2022-12-23T16:34:21.384Z,99848.63
2022-12-23T16:37:23.554Z,99851.31
2022-12-23T16:40:25.741Z,99847.00
2022-12-23T16:43:27.926Z,99847.81
2022-12-23T16:46:34.179Z,99841.59
2022-12-23T16:49:37.399Z,99833.78
2022-12-23T16:52:39.898Z,99837.31
2022-12-23T16:55:50.292Z,99844.59
2022-12-23T16:58:54.766Z,99839.19
2022-12-23T17:02:03.167Z,99838.41
2022-12-23T17:05:07.792Z,99835.72
2022-12-23T17:08:10.131Z,99839.47
2022-12-23T17:11:27.724Z,99837.59
2022-12-23T17:14:32.993Z,99842.16
2022-12-23T17:17:35.832Z,99842.16
2022-12-23T17:20:38.000Z,99833.25
2022-12-23T17:23:40.119Z,99843.25
2022-12-23T17:26:42.320Z,99838.66
2022-12-23T17:29:44.552Z,99835.16
2022-12-23T17:32:50.371Z,99828.16
2022-12-23T17:35:52.496Z,99824.63
2022-12-23T17:38:54.991Z,99822.75
2022-12-23T17:41:57.412Z,99807.66
2022-12-23T17:44:59.535Z,99803.34
2022-12-23T17:48:01.694Z,99816.81
2022-12-23T17:51:03.843Z,99816.81
2022-12-23T17:54:06.484Z,99818.72
2022-12-23T17:57:19.139Z,99816.00
2022-12-23T18:00:29.921Z,99834.88
2022-12-23T18:03:36.303Z,99839.50
2022-12-23T18:06:38.450Z,99820.88
2022-12-23T18:09:40.623Z,99824.38
2022-12-23T18:12:45.613Z,99822.50
2022-12-23T18:15:47.830Z,99823.31
2022-12-23T18:18:50.037Z,99820.88
2022-12-23T18:21:52.465Z,99816.28
2022-12-23T18:24:59.086Z,99818.19
2022-12-23T18:28:01.747Z,99820.09
2022-12-23T18:31:04.084Z,99824.66
2022-12-23T18:34:06.321Z,99822.78
2022-12-23T18:37:09.004Z,99813.06
2022-12-23T18:40:11.538Z,99823.03
2022-12-23T18:43:24.485Z,99822.25
2022-12-23T18:46:26.875Z,99837.34
2022-12-23T18:49:29.023Z,99833.03
2022-12-23T18:52:31.111Z,99835.75
2022-12-23T18:55:33.671Z,99849.22
2022-12-23T18:58:35.774Z,99833.81
2022-12-23T19:01:37.894Z,99851.91
2022-12-23T19:04:40.128Z,99846.81
2022-12-23T19:07:42.466Z,99832.22
2022-12-23T19:10:46.146Z,99844.91
2022-12-23T19:13:48.316Z,99828.72
2022-12-23T19:16:52.407Z,99851.38
2022-12-23T19:19:54.837Z,99850.28
2022-12-23T19:22:56.965Z,99863.25
2022-12-23T19:25:59.087Z,99858.66
2022-12-23T19:29:01.245Z,99856.78
2022-12-23T19:32:03.459Z,99855.16
2022-12-23T19:35:06.103Z,99857.06
2022-12-23T19:38:08.252Z,99872.16
2022-12-23T19:41:10.659Z,99862.47
2022-12-23T19:44:13.012Z,99870.00
2022-12-23T19:47:15.177Z,99862.47
2022-12-23T19:50:18.879Z,99862.72
2022-12-23T19:53:20.998Z,99869.72
2022-12-23T19:56:23.145Z,99874.59
2022-12-23T19:59:25.313Z,99870.81
2022-12-23T20:02:27.540Z,99872.97
2022-12-23T20:05:29.769Z,99871.09
2022-12-23T20:08:33.202Z,99892.66
2022-12-23T20:11:37.568Z,99894.53
2022-12-23T20:14:39.717Z,99883.75
2022-12-23T20:17:41.804Z,99877.81
2022-12-23T20:20:44.445Z,99880.25
2022-12-23T20:23:46.543Z,99875.66
2022-12-23T20:26:48.751Z,99870.25
2022-12-23T20:29:50.965Z,99869.47
2022-12-23T20:32:53.138Z,99864.09
2022-12-23T20:35:55.356Z,99865.97
2022-12-23T20:38:58.001Z,99850.84
2022-12-23T20:42:00.112Z,99850.84
2022-12-23T20:45:02.439Z,99841.16
2022-12-23T20:48:04.900Z,99844.69
2022-12-23T20:51:12.249Z,99844.69
2022-12-23T20:54:14.366Z,99833.06
2022-12-23T20:57:16.546Z,99820.41
2022-12-23T21:00:18.850Z,99821.47
2022-12-23T21:03:21.107Z,99827.69
2022-12-23T21:06:24.001Z,99829.56
2022-12-23T21:09:26.204Z,99836.84
2022-12-23T21:12:28.377Z,99820.66
2022-12-23T21:15:34.136Z,99828.75
2022-12-23T21:18:40.219Z,99813.66
2022-12-23T21:21:42.349Z,99831.44
2022-12-23T21:24:44.493Z,99837.94
2022-12-23T21:27:46.656Z,99834.41
2022-12-23T21:30:48.821Z,99824.44
2022-12-23T21:33:51.746Z,99822.84
2022-12-23T21:36:54.018Z,99809.38
2022-12-23T21:39:56.241Z,99805.84
2022-12-23T21:42:59.966Z,99797.75
2022-12-23T21:46:06.402Z,99787.78
2022-12-23T21:49:09.395Z,99780.78
2022-12-23T21:52:11.576Z,99788.84
2022-12-23T21:55:15.995Z,99791.56
2022-12-23T21:58:18.091Z,99783.47
2022-12-23T22:01:21.004Z,99778.06
2022-12-23T22:04:23.237Z,99780.78
2022-12-23T22:07:25.366Z,99765.69
2022-12-23T22:10:27.525Z,99759.47
2022-12-23T22:13:29.691Z,99741.66
2022-12-23T22:16:32.719Z,99741.66
2022-12-23T22:19:34.954Z,99735.50
2022-12-23T22:22:37.033Z,99727.41
2022-12-23T22:25:39.180Z,99715.53
2022-12-23T22:28:41.373Z,99711.22
2022-12-23T22:31:48.853Z,99707.72
2022-12-23T22:34:51.089Z,99705.03
2022-12-23T22:37:53.366Z,99710.41
2022-12-23T22:40:55.686Z,99712.28
2022-12-23T22:43:58.584Z,99716.88
2022-12-23T22:47:00.974Z,99717.69
2022-12-23T22:50:03.495Z,99704.22
2022-12-23T22:53:05.660Z,99698.25
2022-12-23T22:56:08.042Z,99694.53
2022-12-23T22:59:21.068Z,99687.47
2022-12-23T23:02:24.925Z,99683.72
2022-12-23T23:05:27.182Z,99683.72
2022-12-23T23:08:30.614Z,99678.34
2022-12-23T23:11:33.238Z,99691.81
2022-12-23T23:14:52.413Z,99690.16
2022-12-23T23:17:55.829Z,99682.06
2022-12-23T23:20:58.035Z,99694.75
2022-12-23T23:24:00.129Z,99694.75
2022-12-23T23:27:02.237Z,99709.88
2022-12-23T23:30:04.895Z,99708.22
2022-12-23T23:33:08.676Z,99703.94
2022-12-23T23:36:11.237Z,99719.81
2022-12-23T23:39:13.625Z,99729.78
2022-12-23T23:42:17.830Z,99707.69
2022-12-23T23:45:20.237Z,99722.81
2022-12-23T23:48:22.465Z,99706.91
2022-12-23T23:51:24.598Z,99693.16
2022-12-23T23:54:26.771Z,99684.25
2022-12-23T23:57:29.193Z,99686.13
